Aeroporto :
LOGIN :

Iscrizione | Disclaimer

   EN    FR    IT 

 










Sommario :    VFR   VFR Marginale   IFR   IFR Intensivo   IFR Molto Intensivo
Visibilità : 
Base nubi : 
>= 8 km
>= 3000ft
5 / 8 km
1000 / 3000 ft
1500m / 5 km
500 / 1000 ft
800 / 1500m
200 / 500 ft
< 800m
< 200 ft
Simboli :   Temporali  Nebbia  Neve Forte  Precipitazioni Forti  Vento > 20 kt
SIGMETs :   Varie  Temporali  Ghiacco  Turbolenza  Onda orograficha  Ceneri Vulcaniche






- Altitudine del aeroporto : 370 ft


EBBE - Beauvechain AB

ULTIMO METAR :
  • 230855Z 22009KT 9999 FEW018 SCT021 16/11 Q1015 WHT BLU TEMPO WHT

METARs OBSOLETI :
  • 230825Z 24010KT 9999 FEW018 SCT021 15/11 Q1015 WHT BLU TEMPO WHT
  • 230810Z 23009KT 9999 FEW016 SCT021 15/12 Q1015 WHT BLU TEMPO WHT
  • 230755Z 22010KT 9999 FEW016 16/11 Q1015 BLU BLU TEMPO WHT
  • 230725Z 24009KT 9999 FEW015 15/11 Q1015 BLU BLU TEMPO WHT
  • 230723Z 24009KT 9999 FEW015 15/11 Q1015 BLU BLU TEMPO WHT
  • 230655Z 23011KT 9999 SCT015 14/11 Q1015 WHT BLU TEMPO WHT
  • 230649Z 23011KT 9999 SCT015 14/11 Q1015 WHT BLU TEMPO WHT
  • 230625Z 22011KT 9999 FEW014 14/11 Q1014 BLU BLU TEMPO WHT
  • 230555Z 21010KT 9999 FEW017 13/10 Q1014 BLU BLU TEMPO WHT
  • 230525Z 21008KT 9999 FEW017 12/10 Q1014 BLU BLU TEMPO WHT
  • 230523Z 21008KT 9999 FEW017 12/10 Q1014 BLU BLU TEMPO WHT
  • 230503Z 21007KT 9999 BKN020 12/10 Q1014 WHT WHT
  • 230455Z AUTO 21007KT 9999 FEW018/// 12/10 Q1014 BLU
  • 230425Z AUTO 20009KT 9999 NCD 11/10 Q1014 BLU

TAF TAF EBBE
Valido dal 23 a 07 ore il 23 a 16 ore UTC


230541Z 2307/2316 22008KT 9999 BKN020
BECMG 2308/2310 FEW020 SCT025
TEMPO 2314/2316 23008G18KT 6000 -SHRA SCT030TCU



MetMap, La meteo Aeronautica in un colpo d'occhio ! - Copyright ORBIFLY Dicembre 2007 - Disclaimer

ORBIFLY MET'MAP TEAM :

Programmazione e sviluppo : Alexandra Zaïnal
Concezione : Baudouin d'Aumeries
Supporto tecnico e logistico : Manuel Goepfert
Aiuto : Marc-Olivier Méhu
Aiuto per la traduzione : Arnaldo La Scala




FONTI E CREDITI :

   NOAA